Time;durP1;ratioP1;P1;durP2;ratioP2;P2;SDS_P1;SDS_P2;PMS_P1;PMS_P2;Temp;Humidity;BMP_temperature;BMP_pressure;BME280_temperature;BME280_humidity;BME280_pressure;Samples;Min_cycle;Max_cycle;Signal;HPM_P1;HPM_P2
2022/08/04 00:01:08;;;;;;;1.15;0.47;;;20.80;99.90;;;;;;5035044;28;20094;-66
2022/08/04 00:03:43;;;;;;;0.32;0.30;;;20.90;99.90;;;;;;5033345;28;20497;-66
2022/08/04 00:06:44;;;;;;;0.25;0.25;;;20.80;99.90;;;;;;5027767;28;20052;-66
2022/08/04 00:09:21;;;;;;;0.75;0.38;;;20.80;99.90;;;;;;5032583;28;20053;-66
2022/08/04 00:11:48;;;;;;;0.00;0.00;;;20.70;99.90;;;;;;5029631;28;20060;-66
2022/08/04 00:14:15;;;;;;;0.00;0.00;;;20.70;99.90;;;;;;5027793;28;20088;-65
2022/08/04 00:16:42;;;;;;;0.00;0.00;;;20.70;99.90;;;;;;5030017;28;20049;-66
2022/08/04 00:19:16;;;;;;;0.47;0.25;;;20.70;99.90;;;;;;5029756;28;20175;-66
2022/08/04 00:21:47;;;;;;;0.25;0.25;;;20.70;99.90;;;;;;5028422;28;20464;-66
2022/08/04 00:24:14;;;;;;;0.25;0.25;;;20.70;99.90;;;;;;5029710;28;20447;-66
2022/08/04 00:26:40;;;;;;;1.75;1.65;;;20.70;99.90;;;;;;5041321;28;20049;-66
2022/08/04 00:29:06;;;;;;;0.00;0.00;;;20.70;99.90;;;;;;5028506;28;20430;-66
2022/08/04 00:31:32;;;;;;;0.63;0.32;;;20.60;99.90;;;;;;5032761;28;20033;-66
2022/08/04 00:33:58;;;;;;;0.98;0.65;;;20.60;99.90;;;;;;5032356;28;20085;-66
2022/08/04 00:36:26;;;;;;;0.00;0.00;;;20.60;99.90;;;;;;5044430;28;20057;-66
2022/08/04 00:38:52;;;;;;;0.43;0.38;;;20.50;99.90;;;;;;5029389;28;20046;-66
2022/08/04 00:42:05;;;;;;;0.10;0.10;;;20.50;99.90;;;;;;5030179;28;20045;-66
2022/08/04 00:44:43;;;;;;;0.10;0.10;;;20.50;99.90;;;;;;5017743;28;20416;-66
2022/08/04 00:47:11;;;;;;;0.47;0.30;;;20.40;99.90;;;;;;5039706;28;20452;-66
2022/08/04 00:49:58;;;;;;;1.40;0.60;;;20.40;99.90;;;;;;5035057;28;20061;-66
2022/08/04 00:52:53;;;;;;;0.00;0.00;;;20.30;99.90;;;;;;5028877;28;20057;-66
2022/08/04 00:55:26;;;;;;;0.08;0.08;;;20.30;99.90;;;;;;5033031;28;20504;-66
2022/08/04 00:58:33;;;;;;;0.17;0.17;;;20.20;99.90;;;;;;5035827;28;20029;-66
2022/08/04 01:01:13;;;;;;;0.30;0.28;;;20.20;99.90;;;;;;5046402;28;20562;-66
2022/08/04 01:03:47;;;;;;;0.38;0.38;;;20.20;99.90;;;;;;5033422;28;20679;-66
2022/08/04 01:06:29;;;;;;;0.73;0.70;;;20.20;99.90;;;;;;5026683;28;20116;-66
2022/08/04 01:08:55;;;;;;;0.03;0.03;;;20.20;99.90;;;;;;5031379;28;20551;-66
2022/08/04 01:11:20;;;;;;;0.13;0.13;;;20.20;99.90;;;;;;5029884;28;20129;-66
2022/08/04 01:14:04;;;;;;;0.75;0.75;;;20.20;99.90;;;;;;5029441;28;20045;-66
2022/08/04 01:16:33;;;;;;;0.47;0.47;;;20.20;99.90;;;;;;5028714;28;20045;-66
2022/08/04 01:19:02;;;;;;;0.95;0.95;;;20.20;99.90;;;;;;5029701;28;20045;-66
2022/08/04 01:21:55;;;;;;;0.00;0.00;;;20.10;99.90;;;;;;5027957;28;20164;-66
2022/08/04 01:24:43;;;;;;;0.73;0.52;;;20.20;99.90;;;;;;5026719;28;20544;-66
2022/08/04 01:27:36;;;;;;;4.22;0.13;;;20.10;99.90;;;;;;5028150;28;20048;-66
2022/08/04 01:30:02;;;;;;;0.32;0.32;;;20.10;99.90;;;;;;5027488;28;20053;-66
2022/08/04 01:32:50;;;;;;;0.00;0.00;;;20.10;99.90;;;;;;5034878;28;20045;-66
2022/08/04 01:35:22;;;;;;;0.35;0.32;;;20.10;99.90;;;;;;5028020;28;20045;-66
2022/08/04 01:38:01;;;;;;;0.10;0.10;;;20.00;99.90;;;;;;5029708;28;20158;-66
2022/08/04 01:40:27;;;;;;;0.90;0.57;;;20.00;99.90;;;;;;5028648;28;20088;-66
2022/08/04 01:42:54;;;;;;;0.40;0.40;;;20.00;99.90;;;;;;5034465;28;20512;-66
2022/08/04 01:45:23;;;;;;;1.17;0.30;;;20.00;99.90;;;;;;5026445;28;20452;-66
2022/08/04 01:47:54;;;;;;;11.38;1.95;;;20.00;99.90;;;;;;5027324;28;20060;-66
2022/08/04 01:50:21;;;;;;;0.20;0.20;;;20.00;99.90;;;;;;5028488;28;20049;-66
2022/08/04 01:52:47;;;;;;;0.00;0.00;;;19.90;99.90;;;;;;5040506;28;20045;-66
2022/08/04 01:55:14;;;;;;;0.00;0.00;;;19.90;99.90;;;;;;5029131;28;20114;-66
2022/08/04 01:57:51;;;;;;;0.00;0.00;;;19.80;99.90;;;;;;5028206;28;20045;-66
2022/08/04 02:00:23;;;;;;;0.90;0.60;;;19.80;99.90;;;;;;5039494;28;20054;-66
2022/08/04 02:02:50;;;;;;;15.13;0.73;;;19.80;99.90;;;;;;5031978;28;20049;-66
2022/08/04 02:05:18;;;;;;;1.38;0.40;;;19.80;99.90;;;;;;5027941;28;20067;-66
2022/08/04 02:07:49;;;;;;;0.05;0.05;;;19.80;99.90;;;;;;5028254;28;20040;-66
2022/08/04 02:10:41;;;;;;;0.00;0.00;;;19.90;99.90;;;;;;5027286;28;20060;-66
2022/08/04 02:13:36;;;;;;;0.75;0.45;;;19.80;99.90;;;;;;5026513;28;20056;-66
2022/08/04 02:16:10;;;;;;;0.00;0.00;;;19.80;99.90;;;;;;5022095;28;20135;-66
2022/08/04 02:18:59;;;;;;;0.00;0.00;;;19.80;99.90;;;;;;5027114;28;20042;-66
2022/08/04 02:21:26;;;;;;;0.00;0.00;;;19.90;99.90;;;;;;5028748;28;20436;-66
2022/08/04 02:23:59;;;;;;;3.05;0.65;;;20.00;99.90;;;;;;5029528;28;20053;-66
2022/08/04 02:26:28;;;;;;;0.10;0.10;;;19.90;99.90;;;;;;5028149;28;20041;-66
2022/08/04 02:29:15;;;;;;;1.85;0.38;;;19.90;99.90;;;;;;5026259;28;20087;-66
2022/08/04 02:32:03;;;;;;;5.93;1.67;;;20.00;99.90;;;;;;5033849;28;20045;-66
2022/08/04 02:34:53;;;;;;;0.20;0.20;;;20.00;99.90;;;;;;5027901;28;20066;-66
2022/08/04 02:37:20;;;;;;;0.68;0.22;;;19.90;99.90;;;;;;5027393;28;20076;-66
2022/08/04 02:39:51;;;;;;;0.00;0.00;;;19.90;99.90;;;;;;5028175;28;20042;-66
2022/08/04 02:42:17;;;;;;;2.60;2.05;;;19.90;99.90;;;;;;5026568;28;20047;-66
2022/08/04 02:44:49;;;;;;;0.10;0.10;;;20.00;99.90;;;;;;5028068;28;20056;-66
2022/08/04 02:47:18;;;;;;;0.20;0.20;;;20.00;99.90;;;;;;5026763;28;20053;-66
2022/08/04 02:49:45;;;;;;;0.20;0.20;;;19.90;99.90;;;;;;5026146;28;20042;-66
2022/08/04 02:52:13;;;;;;;37.35;1.13;;;20.00;99.90;;;;;;5023978;28;20136;-66
2022/08/04 02:54:41;;;;;;;0.10;0.10;;;20.10;99.90;;;;;;5035870;28;20049;-66
2022/08/04 02:57:10;;;;;;;0.00;0.00;;;20.10;99.90;;;;;;5028334;28;20080;-66
2022/08/04 03:00:09;;;;;;;0.10;0.10;;;20.00;99.90;;;;;;5030013;28;20493;-66
2022/08/04 03:02:48;;;;;;;0.38;0.38;;;20.10;99.90;;;;;;5029052;28;20485;-66
2022/08/04 03:05:18;;;;;;;0.00;0.00;;;20.10;99.90;;;;;;5026504;28;20046;-66
2022/08/04 03:08:08;;;;;;;0.00;0.00;;;20.10;99.90;;;;;;5026786;28;20064;-66
2022/08/04 03:11:11;;;;;;;3.65;0.35;;;20.10;99.90;;;;;;5029179;28;20489;-66
2022/08/04 03:13:52;;;;;;;0.57;0.57;;;20.20;99.90;;;;;;5026820;28;20049;-66
2022/08/04 03:16:42;;;;;;;0.15;0.13;;;20.20;99.90;;;;;;5032039;28;20049;-66
2022/08/04 03:19:52;;;;;;;0.95;0.73;;;20.20;99.90;;;;;;5035191;28;20052;-66
2022/08/04 03:22:45;;;;;;;0.00;0.00;;;20.10;99.90;;;;;;5026841;28;20076;-66
2022/08/04 03:25:39;;;;;;;0.47;0.47;;;20.20;99.90;;;;;;5032177;28;20111;-66
2022/08/04 03:28:17;;;;;;;2.08;1.27;;;20.20;99.90;;;;;;5031254;28;20141;-65
2022/08/04 03:30:56;;;;;;;1.08;0.98;;;20.10;99.90;;;;;;5030219;28;20049;-66
2022/08/04 03:34:01;;;;;;;2.45;1.10;;;20.10;99.90;;;;;;5030149;28;20099;-66
2022/08/04 03:37:04;;;;;;;0.25;0.25;;;20.00;99.90;;;;;;5029970;28;20112;-66
2022/08/04 03:39:48;;;;;;;0.00;0.00;;;20.10;99.90;;;;;;5030156;28;20059;-66
2022/08/04 03:42:34;;;;;;;0.00;0.00;;;20.00;99.90;;;;;;5036162;28;20086;-66
2022/08/04 03:45:13;;;;;;;0.43;0.38;;;19.90;99.90;;;;;;5031265;28;20444;-66
2022/08/04 03:47:59;;;;;;;0.43;0.30;;;19.90;99.90;;;;;;5030151;28;20409;-66
2022/08/04 03:53:07;;;;;;;0.00;0.00;;;20.00;99.90;;;;;;5041744;28;20049;-65
2022/08/04 03:53:48;;;;;;;0.30;0.30;;;19.90;99.90;;;;;;5032583;28;20393;-66
2022/08/04 03:56:31;;;;;;;3.05;1.42;;;20.00;99.90;;;;;;5030002;28;20061;-66
2022/08/04 03:59:33;;;;;;;1.25;0.65;;;20.00;99.90;;;;;;5030243;28;20060;-66
2022/08/04 04:02:30;;;;;;;0.20;0.20;;;20.00;99.90;;;;;;5032645;28;20061;-66
2022/08/04 04:05:19;;;;;;;0.00;0.00;;;19.90;99.90;;;;;;5030081;28;20059;-66
2022/08/04 04:08:06;;;;;;;0.00;0.00;;;20.00;99.90;;;;;;5033360;28;20081;-66
2022/08/04 04:10:34;;;;;;;0.05;0.05;;;19.90;99.90;;;;;;5029749;28;20049;-66
2022/08/04 04:13:53;;;;;;;0.00;0.00;;;19.90;99.90;;;;;;5036362;28;20052;-66
2022/08/04 04:17:04;;;;;;;0.00;0.00;;;19.90;99.90;;;;;;5027746;28;20054;-66
2022/08/04 04:19:53;;;;;;;0.25;0.25;;;19.90;99.90;;;;;;5036610;28;20057;-66
2022/08/04 04:22:39;;;;;;;0.43;0.40;;;20.00;99.90;;;;;;5029838;28;20677;-66
2022/08/04 04:25:32;;;;;;;0.40;0.40;;;20.00;99.90;;;;;;5035424;28;20098;-66
2022/08/04 04:28:19;;;;;;;0.00;0.00;;;20.00;99.90;;;;;;5030412;28;20180;-66
2022/08/04 04:31:23;;;;;;;0.35;0.35;;;20.00;99.90;;;;;;5030146;28;20160;-66
2022/08/04 04:34:06;;;;;;;3.20;0.28;;;20.00;99.90;;;;;;5028191;28;20076;-66
2022/08/04 04:36:53;;;;;;;1.42;1.27;;;20.00;99.90;;;;;;5028651;28;20045;-66
2022/08/04 04:39:37;;;;;;;0.10;0.10;;;20.00;99.90;;;;;;5046418;28;20047;-66
2022/08/04 04:42:38;;;;;;;1.65;0.85;;;20.00;99.90;;;;;;5033511;28;20052;-66
2022/08/04 04:45:39;;;;;;;0.10;0.10;;;20.10;99.90;;;;;;5047293;28;20120;-66
2022/08/04 04:48:35;;;;;;;0.10;0.10;;;20.10;99.90;;;;;;5024122;28;20103;-66
2022/08/04 04:51:24;;;;;;;0.25;0.25;;;20.10;99.90;;;;;;5029369;28;20098;-66
2022/08/04 04:53:50;;;;;;;0.10;0.10;;;20.10;99.90;;;;;;5034840;28;20048;-66
2022/08/04 04:56:34;;;;;;;1.30;0.60;;;20.10;99.90;;;;;;5028120;28;20054;-66
2022/08/04 04:59:01;;;;;;;1.45;0.63;;;20.10;99.90;;;;;;5028328;28;20862;-66
2022/08/04 05:01:56;;;;;;;0.05;0.05;;;20.20;99.90;;;;;;5029332;28;20073;-66
2022/08/04 05:04:45;;;;;;;4.30;3.40;;;20.30;99.90;;;;;;5028936;28;20041;-66
2022/08/04 05:07:44;;;;;;;0.00;0.00;;;20.30;99.90;;;;;;5027797;28;20060;-66
2022/08/04 05:10:16;;;;;;;0.00;0.00;;;20.40;99.90;;;;;;5028749;28;20048;-66
2022/08/04 05:13:20;;;;;;;0.10;0.10;;;20.50;99.90;;;;;;5028142;28;20417;-66
2022/08/04 05:15:51;;;;;;;0.32;0.25;;;20.50;99.90;;;;;;5024469;28;20068;-66
2022/08/04 05:18:21;;;;;;;0.00;0.00;;;20.50;99.90;;;;;;5027499;28;20061;-66
2022/08/04 05:20:55;;;;;;;0.35;0.35;;;20.60;99.90;;;;;;5028305;28;20059;-66
2022/08/04 05:23:26;;;;;;;0.25;0.25;;;20.60;99.90;;;;;;5031499;28;20041;-66
2022/08/04 05:25:56;;;;;;;1.67;0.47;;;20.60;99.90;;;;;;5041652;28;20046;-66
2022/08/04 05:28:31;;;;;;;3.30;1.65;;;20.60;99.90;;;;;;5034491;28;20064;-66
2022/08/04 05:31:05;;;;;;;0.00;0.00;;;20.70;99.90;;;;;;5044791;28;20187;-66
2022/08/04 05:33:45;;;;;;;0.00;0.00;;;20.70;99.90;;;;;;5048102;28;20052;-66
2022/08/04 05:36:16;;;;;;;0.45;0.45;;;20.70;99.90;;;;;;5040308;28;20045;-66
2022/08/04 05:38:44;;;;;;;1.15;1.05;;;20.70;99.90;;;;;;5029224;28;20065;-66
2022/08/04 05:41:11;;;;;;;10.77;0.50;;;20.70;99.90;;;;;;5044638;28;20057;-66
2022/08/04 05:43:40;;;;;;;0.00;0.00;;;20.70;99.90;;;;;;5048660;28;20045;-66
2022/08/04 05:46:08;;;;;;;0.15;0.15;;;20.80;99.90;;;;;;5040549;28;20091;-66
2022/08/04 05:48:35;;;;;;;0.38;0.38;;;20.80;99.90;;;;;;5030131;28;20447;-66
2022/08/04 05:51:03;;;;;;;0.00;0.00;;;20.80;99.90;;;;;;5027698;28;20536;-66
2022/08/04 05:53:30;;;;;;;0.00;0.00;;;20.80;99.90;;;;;;5035041;28;20055;-66
2022/08/04 05:55:57;;;;;;;0.20;0.20;;;20.90;99.90;;;;;;5035088;28;20684;-66
2022/08/04 05:58:24;;;;;;;2.13;0.75;;;20.90;99.90;;;;;;5026762;28;20466;-66
2022/08/04 06:00:51;;;;;;;0.55;0.32;;;20.90;99.90;;;;;;5034243;28;20515;-66
2022/08/04 06:03:20;;;;;;;0.00;0.00;;;20.90;99.90;;;;;;5030091;28;20688;-66
2022/08/04 06:05:46;;;;;;;0.05;0.05;;;20.90;99.90;;;;;;5039843;28;20119;-66
2022/08/04 06:08:12;;;;;;;0.32;0.25;;;20.90;99.90;;;;;;5046642;28;20537;-66
2022/08/04 06:10:39;;;;;;;0.28;0.10;;;20.90;99.90;;;;;;5027819;28;20103;-66
2022/08/04 06:13:09;;;;;;;0.65;0.25;;;20.90;99.90;;;;;;5026942;28;20071;-66
2022/08/04 06:15:39;;;;;;;0.57;0.32;;;20.90;99.90;;;;;;5028002;28;20045;-65
2022/08/04 06:18:08;;;;;;;0.15;0.15;;;21.00;99.90;;;;;;5028100;28;20037;-66
2022/08/04 06:20:35;;;;;;;0.22;0.22;;;21.00;99.90;;;;;;5030242;28;20060;-66
2022/08/04 06:23:08;;;;;;;0.00;0.00;;;21.00;99.90;;;;;;5047346;28;20037;-66
2022/08/04 06:25:40;;;;;;;0.03;0.03;;;21.00;99.90;;;;;;5047288;28;20055;-66
2022/08/04 06:28:07;;;;;;;0.68;0.38;;;21.10;99.90;;;;;;5039830;28;20044;-67
2022/08/04 06:30:35;;;;;;;0.00;0.00;;;21.10;99.90;;;;;;5041840;28;20404;-67
2022/08/04 06:33:02;;;;;;;0.20;0.20;;;21.10;99.90;;;;;;5039287;28;20041;-67
2022/08/04 06:35:30;;;;;;;0.00;0.00;;;21.10;99.90;;;;;;5042396;28;20045;-67
2022/08/04 06:37:56;;;;;;;0.55;0.35;;;21.10;99.90;;;;;;5044820;28;20041;-67
2022/08/04 06:40:23;;;;;;;0.00;0.00;;;21.10;99.90;;;;;;5046029;28;20527;-67
2022/08/04 06:42:51;;;;;;;0.00;0.00;;;21.20;99.90;;;;;;5038997;28;20370;-67
2022/08/04 06:45:18;;;;;;;2.13;0.45;;;21.20;99.90;;;;;;5044467;28;20049;-67
2022/08/04 06:47:46;;;;;;;0.00;0.00;;;21.20;99.90;;;;;;5043076;28;20045;-67
2022/08/04 06:50:13;;;;;;;1.20;0.30;;;21.20;99.90;;;;;;5039518;28;20052;-67
2022/08/04 06:52:39;;;;;;;0.10;0.10;;;21.20;99.90;;;;;;5051318;28;20049;-66
2022/08/04 06:55:06;;;;;;;0.25;0.25;;;21.20;99.90;;;;;;5047966;28;20064;-66
2022/08/04 06:57:35;;;;;;;0.00;0.00;;;21.30;99.90;;;;;;5046448;28;20087;-66
2022/08/04 07:00:08;;;;;;;0.08;0.08;;;21.30;99.90;;;;;;5028410;28;20128;-67
2022/08/04 07:02:38;;;;;;;;;;;21.30;99.90;;;;;;5031989;28;20110;-67
2022/08/04 07:05:06;;;;;;;0.25;0.25;;;21.30;99.90;;;;;;5030502;28;19920;-66
2022/08/04 07:07:32;;;;;;;0.00;0.00;;;21.40;99.90;;;;;;5030428;28;20041;-67
2022/08/04 07:09:59;;;;;;;0.10;0.10;;;21.40;99.90;;;;;;5030461;28;20491;-67
2022/08/04 07:12:26;;;;;;;0.00;0.00;;;21.50;99.90;;;;;;5031518;28;20130;-66
2022/08/04 07:14:52;;;;;;;0.00;0.00;;;21.50;99.90;;;;;;5030750;28;20053;-67
2022/08/04 07:17:20;;;;;;;0.00;0.00;;;21.60;99.90;;;;;;5030510;28;20051;-67
2022/08/04 07:19:46;;;;;;;0.25;0.25;;;21.60;99.90;;;;;;5036786;28;20045;-67
2022/08/04 07:22:13;;;;;;;2.08;1.10;;;21.70;99.90;;;;;;5050747;28;20040;-66
2022/08/04 07:24:41;;;;;;;0.00;0.00;;;21.70;99.90;;;;;;5030390;28;20095;-67
2022/08/04 07:27:06;;;;;;;0.63;0.15;;;21.70;99.90;;;;;;5046519;28;20070;-67
2022/08/04 07:29:34;;;;;;;0.10;0.10;;;21.80;99.90;;;;;;5033329;28;20041;-67
2022/08/04 07:32:00;;;;;;;3.08;1.23;;;21.80;99.90;;;;;;5034921;28;20045;-67
2022/08/04 07:34:28;;;;;;;0.00;0.00;;;21.80;99.90;;;;;;5039018;28;20762;-67
2022/08/04 07:36:56;;;;;;;0.00;0.00;;;21.90;99.90;;;;;;5045740;28;20046;-67
2022/08/04 07:39:24;;;;;;;0.00;0.00;;;21.90;99.90;;;;;;5030083;28;20072;-67
2022/08/04 07:41:51;;;;;;;0.90;0.35;;;22.00;99.90;;;;;;5032597;28;20543;-67
2022/08/04 07:44:17;;;;;;;0.00;0.00;;;22.00;99.90;;;;;;5040126;28;20042;-67
2022/08/04 07:46:44;;;;;;;0.03;0.03;;;22.10;99.90;;;;;;5050531;28;20186;-67
2022/08/04 07:49:11;;;;;;;0.00;0.00;;;22.20;99.90;;;;;;5030233;28;20080;-67
2022/08/04 07:51:38;;;;;;;0.47;0.47;;;22.20;99.90;;;;;;5029264;28;20168;-67
2022/08/04 07:54:06;;;;;;;0.00;0.00;;;22.30;99.90;;;;;;5034509;28;20824;-67
2022/08/04 07:56:34;;;;;;;0.32;0.32;;;22.30;99.90;;;;;;5042296;28;20049;-67
2022/08/04 07:59:01;;;;;;;0.65;0.65;;;22.40;99.90;;;;;;5030116;28;20041;-67
2022/08/04 08:01:27;;;;;;;0.10;0.10;;;22.50;99.90;;;;;;5029409;28;20061;-67
2022/08/04 08:03:56;;;;;;;0.00;0.00;;;22.60;99.90;;;;;;5031716;28;20049;-66
2022/08/04 08:06:22;;;;;;;0.00;0.00;;;22.60;99.90;;;;;;5032348;28;20091;-67
2022/08/04 08:08:48;;;;;;;0.13;0.13;;;22.70;99.90;;;;;;5054021;28;20045;-67
2022/08/04 08:11:15;;;;;;;0.00;0.00;;;22.80;99.90;;;;;;5029863;28;20523;-67
2022/08/04 08:13:42;;;;;;;0.22;0.22;;;22.90;99.90;;;;;;5031014;28;20048;-67
2022/08/04 08:16:08;;;;;;;0.30;0.30;;;23.00;99.90;;;;;;5032345;28;20060;-67
2022/08/04 08:18:34;;;;;;;0.00;0.00;;;23.00;99.90;;;;;;5029987;28;20045;-67
2022/08/04 08:21:00;;;;;;;0.10;0.10;;;23.20;99.90;;;;;;5027417;28;20495;-67
2022/08/04 08:23:25;;;;;;;0.10;0.10;;;23.30;99.90;;;;;;5030135;28;20049;-67
2022/08/04 08:25:51;;;;;;;0.00;0.00;;;23.40;99.90;;;;;;5029945;28;20500;-67
2022/08/04 08:28:17;;;;;;;0.17;0.17;;;23.40;99.90;;;;;;5029366;28;20397;-67
2022/08/04 08:30:43;;;;;;;0.00;0.00;;;23.50;99.90;;;;;;5040237;28;20048;-67
2022/08/04 08:33:13;;;;;;;0.00;0.00;;;23.50;99.90;;;;;;5043435;28;20064;-67
2022/08/04 08:36:00;;;;;;;0.00;0.00;;;23.50;99.90;;;;;;5049555;28;20492;-67
2022/08/04 08:38:48;;;;;;;0.00;0.00;;;23.60;99.90;;;;;;5032030;28;20111;-67
2022/08/04 08:41:22;;;;;;;0.00;0.00;;;23.70;99.90;;;;;;5030415;28;20041;-67
2022/08/04 08:44:01;;;;;;;0.10;0.10;;;23.70;99.90;;;;;;5049100;28;20048;-67
2022/08/04 08:46:50;;;;;;;0.00;0.00;;;23.70;99.90;;;;;;5048176;28;20113;-67
2022/08/04 08:49:30;;;;;;;0.10;0.10;;;23.80;99.90;;;;;;5031115;28;20084;-67
2022/08/04 08:52:14;;;;;;;0.73;0.73;;;23.80;99.90;;;;;;5047757;28;20041;-67
2022/08/04 08:55:11;;;;;;;0.10;0.10;;;23.70;99.90;;;;;;5034153;28;20473;-67
2022/08/04 08:58:04;;;;;;;0.00;0.00;;;23.70;99.90;;;;;;5032628;28;20053;-67
2022/08/04 09:00:48;;;;;;;0.00;0.00;;;23.70;99.90;;;;;;5030056;28;20056;-67
2022/08/04 09:03:35;;;;;;;0.43;0.43;;;23.90;99.90;;;;;;5028857;28;20119;-67
2022/08/04 09:06:36;;;;;;;0.00;0.00;;;24.00;99.90;;;;;;5029037;28;20045;-67
2022/08/04 09:09:13;;;;;;;0.00;0.00;;;24.00;99.90;;;;;;5026633;28;20124;-68
2022/08/04 09:11:47;;;;;;;0.00;0.00;;;24.10;99.90;;;;;;5029135;28;20049;-67
2022/08/04 09:14:34;;;;;;;0.00;0.00;;;24.20;99.90;;;;;;5034581;28;20036;-67
2022/08/04 09:17:05;;;;;;;0.00;0.00;;;24.30;99.90;;;;;;5048126;28;20041;-68
2022/08/04 09:19:47;;;;;;;0.00;0.00;;;24.40;99.90;;;;;;5034738;28;20049;-67
2022/08/04 09:22:24;;;;;;;0.00;0.00;;;24.50;99.90;;;;;;5029423;28;20099;-68
2022/08/04 09:25:06;;;;;;;0.35;0.35;;;24.60;99.90;;;;;;5028105;28;20041;-68
2022/08/04 09:27:54;;;;;;;0.00;0.00;;;24.80;99.90;;;;;;5038544;28;20069;-68
2022/08/04 09:30:43;;;;;;;0.00;0.00;;;25.30;99.90;;;;;;5028699;28;20079;-68
2022/08/04 09:33:21;;;;;;;0.10;0.10;;;25.40;99.90;;;;;;5045435;28;20033;-67
2022/08/04 09:35:55;;;;;;;2.50;0.73;;;25.40;99.90;;;;;;5048782;28;20123;-67
2022/08/04 09:38:39;;;;;;;0.32;0.13;;;25.30;99.90;;;;;;5031405;28;20077;-67
2022/08/04 09:41:15;;;;;;;;;;;25.40;99.90;;;;;;5028880;28;20741;-68
2022/08/04 09:44:10;;;;;;;0.00;0.00;;;25.30;99.90;;;;;;5027698;28;19929;-68
2022/08/04 09:46:44;;;;;;;0.15;0.15;;;25.70;99.90;;;;;;5038692;28;20550;-68
2022/08/04 09:49:18;;;;;;;0.00;0.00;;;26.10;99.90;;;;;;5036105;28;20037;-67
2022/08/04 09:51:49;;;;;;;0.68;0.63;;;26.70;99.90;;;;;;5035003;28;20404;-68
2022/08/04 09:54:42;;;;;;;0.28;0.15;;;27.10;99.90;;;;;;5039727;28;20143;-68
2022/08/04 09:57:30;;;;;;;0.08;0.08;;;27.20;99.90;;;;;;5028103;28;20089;-68
2022/08/04 10:00:06;;;;;;;1.05;0.98;;;27.30;99.90;;;;;;5043543;28;20076;-67
2022/08/04 10:02:39;;;;;;;0.10;0.10;;;26.90;99.90;;;;;;5039202;28;20174;-68
2022/08/04 10:05:19;;;;;;;0.63;0.28;;;27.20;99.90;;;;;;5044197;28;20443;-68
2022/08/04 10:07:58;;;;;;;0.00;0.00;;;27.30;99.90;;;;;;5041269;28;20508;-68
2022/08/04 10:10:45;;;;;;;0.30;0.30;;;27.40;99.90;;;;;;5045631;28;20504;-68
2022/08/04 10:13:25;;;;;;;0.35;0.20;;;27.60;99.90;;;;;;5044890;28;20053;-68
2022/08/04 10:16:09;;;;;;;0.05;0.05;;;27.70;99.90;;;;;;5044983;28;20481;-68
2022/08/04 10:18:56;;;;;;;0.00;0.00;;;27.60;99.90;;;;;;5031923;28;20045;-68
2022/08/04 10:21:36;;;;;;;0.00;0.00;;;27.70;99.90;;;;;;5029380;28;20540;-68
2022/08/04 10:24:20;;;;;;;0.00;0.00;;;27.90;99.90;;;;;;5029203;28;20123;-68
2022/08/04 10:26:57;;;;;;;0.00;0.00;;;28.00;99.90;;;;;;5027252;28;20037;-68
2022/08/04 10:29:41;;;;;;;0.10;0.10;;;27.90;99.90;;;;;;5043849;28;20498;-68
2022/08/04 10:32:25;;;;;;;0.00;0.00;;;27.40;99.90;;;;;;5034189;28;20557;-68
2022/08/04 10:35:09;;;;;;;0.00;0.00;;;26.80;99.90;;;;;;5028240;28;20115;-68
2022/08/04 10:37:43;;;;;;;0.38;0.35;;;26.60;99.90;;;;;;5027654;28;20653;-68
2022/08/04 10:43:08;;;;;;;0.08;0.08;;;26.00;99.90;;;;;;5040645;28;20128;-68
2022/08/04 10:45:45;;;;;;;0.10;0.08;;;25.90;99.90;;;;;;5030986;28;20045;-67
2022/08/04 10:48:39;;;;;;;0.00;0.00;;;26.30;99.90;;;;;;5043407;28;20080;-68
2022/08/04 10:51:43;;;;;;;0.20;0.20;;;26.60;99.90;;;;;;5030960;28;20099;-68
2022/08/04 10:54:16;;;;;;;0.00;0.00;;;26.90;99.90;;;;;;5026705;28;20061;-68
2022/08/04 10:57:19;;;;;;;0.00;0.00;;;26.70;99.90;;;;;;5028165;28;20049;-68
2022/08/04 10:59:53;;;;;;;0.00;0.00;;;26.40;99.90;;;;;;5000784;28;20053;-68
2022/08/04 11:03:05;;;;;;;0.00;0.00;;;26.50;99.90;;;;;;5031634;28;20532;-68
2022/08/04 11:05:34;;;;;;;0.00;0.00;;;26.70;99.90;;;;;;5026416;28;20096;-68
2022/08/04 11:08:10;;;;;;;0.00;0.00;;;26.80;99.90;;;;;;5028688;28;20413;-68
2022/08/04 11:10:42;;;;;;;0.28;0.28;;;26.90;99.90;;;;;;5026634;28;20128;-68
2022/08/04 11:13:12;;;;;;;0.20;0.20;;;26.70;99.90;;;;;;5035383;28;20045;-68
2022/08/04 11:15:45;;;;;;;0.10;0.10;;;26.70;99.90;;;;;;5046854;28;20405;-68
2022/08/04 11:18:17;;;;;;;0.17;0.17;;;26.90;99.90;;;;;;5028356;28;20045;-68
2022/08/04 11:21:11;;;;;;;0.20;0.20;;;27.00;99.90;;;;;;5042839;28;20593;-68
2022/08/04 11:23:40;;;;;;;;;;;27.10;99.90;;;;;;5028804;28;20037;-68
2022/08/04 11:26:14;;;;;;;0.00;0.00;;;27.00;99.90;;;;;;5027119;28;20015;-68
2022/08/04 11:28:59;;;;;;;0.00;0.00;;;26.70;99.90;;;;;;5044674;28;20045;-68
2022/08/04 11:31:30;;;;;;;0.00;0.00;;;27.10;99.90;;;;;;5030239;28;20053;-68
2022/08/04 11:34:07;;;;;;;0.00;0.00;;;27.40;99.90;;;;;;5026624;28;20196;-68
2022/08/04 11:36:45;;;;;;;0.15;0.15;;;27.20;99.90;;;;;;5026040;28;20068;-67
2022/08/04 11:39:23;;;;;;;0.10;0.10;;;27.40;99.90;;;;;;5030966;28;20064;-68
2022/08/04 11:41:57;;;;;;;0.00;0.00;;;27.30;99.90;;;;;;5045439;28;20059;-67
2022/08/04 11:44:48;;;;;;;0.00;0.00;;;27.40;99.90;;;;;;5038452;28;20482;-68
2022/08/04 11:47:29;;;;;;;0.70;0.52;;;27.20;99.90;;;;;;5030856;28;20056;-68
2022/08/04 11:50:11;;;;;;;1.35;0.45;;;27.10;99.90;;;;;;5030968;28;20140;-68
2022/08/04 11:52:40;;;;;;;0.00;0.00;;;27.10;99.90;;;;;;5028475;28;20093;-68
2022/08/04 11:55:10;;;;;;;0.10;0.10;;;26.70;99.90;;;;;;5035152;28;20033;-68
2022/08/04 11:57:36;;;;;;;0.00;0.00;;;26.60;99.90;;;;;;5029638;28;20120;-67
2022/08/04 12:00:07;;;;;;;0.40;0.30;;;26.50;99.90;;;;;;5030300;28;20061;-68
2022/08/04 12:02:55;;;;;;;0.00;0.00;;;26.60;99.90;;;;;;5033325;28;20560;-68
2022/08/04 12:05:31;;;;;;;0.00;0.00;;;27.10;99.90;;;;;;5027809;28;20603;-68
2022/08/04 12:08:02;;;;;;;0.00;0.00;;;27.30;99.90;;;;;;5031224;28;20401;-68
2022/08/04 12:11:00;;;;;;;0.03;0.03;;;27.50;99.90;;;;;;5039094;28;20037;-68
2022/08/04 12:13:39;;;;;;;0.00;0.00;;;27.60;99.90;;;;;;5050076;28;20072;-68
2022/08/04 12:16:25;;;;;;;0.10;0.10;;;27.90;99.90;;;;;;5032051;28;20607;-68
2022/08/04 12:19:08;;;;;;;0.30;0.30;;;28.30;99.90;;;;;;5029258;28;20053;-68
2022/08/04 12:21:38;;;;;;;;;;;28.30;99.90;;;;;;5030521;28;20057;-68
2022/08/04 12:24:13;;;;;;;0.00;0.00;;;28.10;99.90;;;;;;5031464;28;19963;-68
2022/08/04 12:26:48;;;;;;;0.00;0.00;;;27.90;99.90;;;;;;5037134;28;20408;-68
2022/08/04 12:29:17;;;;;;;0.00;0.00;;;28.00;99.90;;;;;;5032787;28;20523;-68
2022/08/04 12:32:15;;;;;;;0.20;0.20;;;28.20;99.90;;;;;;5039533;28;20098;-69
2022/08/04 12:34:48;;;;;;;0.90;0.63;;;28.40;99.90;;;;;;5040148;28;20053;-69
2022/08/04 12:37:47;;;;;;;0.00;0.00;;;28.00;99.90;;;;;;5046877;28;20099;-69
2022/08/04 12:40:17;;;;;;;0.00;0.00;;;27.70;99.90;;;;;;5036005;28;20080;-69
2022/08/04 12:43:10;;;;;;;0.00;0.00;;;27.40;99.90;;;;;;5036986;28;20049;-68
2022/08/04 12:45:47;;;;;;;0.00;0.00;;;27.30;99.90;;;;;;5032381;28;20046;-69
2022/08/04 12:48:15;;;;;;;0.00;0.00;;;27.30;99.90;;;;;;5028448;28;20287;-68
2022/08/04 12:50:45;;;;;;;0.28;0.28;;;27.60;99.90;;;;;;5027763;28;20115;-68
2022/08/04 12:53:13;;;;;;;0.00;0.00;;;27.70;99.90;;;;;;5027810;28;20132;-69
2022/08/04 12:55:46;;;;;;;0.00;0.00;;;27.60;99.90;;;;;;5028764;28;20048;-68
2022/08/04 12:58:16;;;;;;;0.00;0.00;;;27.90;99.90;;;;;;5042833;28;20045;-68
2022/08/04 13:00:49;;;;;;;0.00;0.00;;;27.80;99.90;;;;;;5048541;28;20056;-68
2022/08/04 13:03:16;;;;;;;1.60;0.55;;;28.00;99.90;;;;;;5029416;28;20136;-68
2022/08/04 13:05:42;;;;;;;1.17;0.22;;;28.30;99.90;;;;;;5041637;28;20049;-68
2022/08/04 13:08:10;;;;;;;0.00;0.00;;;28.40;99.90;;;;;;5028600;28;20037;-68
2022/08/04 13:10:43;;;;;;;0.00;0.00;;;28.60;99.90;;;;;;5028760;28;20126;-68
2022/08/04 13:13:22;;;;;;;6.80;2.00;;;28.10;99.90;;;;;;5041517;28;20132;-68
2022/08/04 13:15:56;;;;;;;0.10;0.10;;;27.20;99.90;;;;;;5028278;28;20392;-68
2022/08/04 13:18:24;;;;;;;0.00;0.00;;;27.00;99.90;;;;;;5047170;28;20048;-68
2022/08/04 13:20:50;;;;;;;0.10;0.10;;;27.40;99.90;;;;;;5036508;28;20065;-68
2022/08/04 13:23:17;;;;;;;0.00;0.00;;;27.80;99.90;;;;;;5028493;28;20131;-68
2022/08/04 13:25:46;;;;;;;0.10;0.10;;;27.40;99.90;;;;;;5028783;28;20045;-68
2022/08/04 13:28:22;;;;;;;0.00;0.00;;;27.80;99.90;;;;;;5028731;28;20049;-68
2022/08/04 13:30:54;;;;;;;0.00;0.00;;;28.10;99.90;;;;;;5037625;28;20048;-68
2022/08/04 13:33:21;;;;;;;0.00;0.00;;;28.40;99.90;;;;;;5048042;28;20053;-69
2022/08/04 13:35:47;;;;;;;0.30;0.30;;;28.70;99.90;;;;;;5032790;28;20041;-68
2022/08/04 13:38:16;;;;;;;0.00;0.00;;;28.40;99.90;;;;;;5026337;28;20087;-68
2022/08/04 13:40:42;;;;;;;0.00;0.00;;;28.00;99.90;;;;;;5042488;28;20639;-68